Time;durP1;ratioP1;P1;durP2;ratioP2;P2;SDS_P1;SDS_P2;PMS_P1;PMS_P2;Temp;Humidity;BMP_temperature;BMP_pressure;BME280_temperature;BME280_humidity;BME280_pressure;Samples;Min_cycle;Max_cycle;Signal;HPM_P1;HPM_P2
2022/01/08 00:00:26;;;;;;;17.95;7.93;;;;;;;;;;5058642;28;20047;-72
2022/01/08 00:02:52;;;;;;;15.93;7.75;;;;;;;;;;5067580;28;20114;-72
2022/01/08 00:05:19;;;;;;;18.23;8.40;;;;;;;;;;5067971;28;20040;-73
2022/01/08 00:07:45;;;;;;;16.58;8.18;;;;;;;;;;5060982;28;20040;-73
2022/01/08 00:10:11;;;;;;;17.48;8.07;;;;;;;;;;5060726;28;20036;-73
2022/01/08 00:12:37;;;;;;;17.50;8.02;;;;;;;;;;5067962;28;20047;-72
2022/01/08 00:15:05;;;;;;;15.70;7.38;;;;;;;;;;5060117;28;20040;-73
2022/01/08 00:17:31;;;;;;;15.57;8.50;;;;;;;;;;5066294;28;20037;-72
2022/01/08 00:19:57;;;;;;;16.08;8.52;;;;;;;;;;5065684;28;20048;-72
2022/01/08 00:22:23;;;;;;;16.90;8.20;;;;;;;;;;5061164;28;20086;-72
2022/01/08 00:24:52;;;;;;;16.27;8.43;;;;;;;;;;5066734;28;20517;-73
2022/01/08 00:27:19;;;;;;;17.98;8.48;;;;;;;;;;5058978;28;20040;-73
2022/01/08 00:29:45;;;;;;;16.15;8.10;;;;;;;;;;5060669;28;20406;-72
2022/01/08 00:32:11;;;;;;;16.83;8.50;;;;;;;;;;5064686;28;20083;-72
2022/01/08 00:34:37;;;;;;;14.82;8.10;;;;;;;;;;5063136;28;20053;-72
2022/01/08 00:37:03;;;;;;;18.92;8.57;;;;;;;;;;5062348;28;20479;-72
2022/01/08 00:39:29;;;;;;;15.63;8.25;;;;;;;;;;5065393;28;20127;-71
2022/01/08 00:41:55;;;;;;;16.20;8.75;;;;;;;;;;5063870;28;20148;-72
2022/01/08 00:44:21;;;;;;;20.08;8.75;;;;;;;;;;5067015;28;20032;-71
2022/01/08 00:46:47;;;;;;;16.55;8.35;;;;;;;;;;5063838;28;20040;-71
2022/01/08 00:49:13;;;;;;;16.15;8.75;;;;;;;;;;5065514;28;20048;-71
2022/01/08 00:51:39;;;;;;;16.15;8.73;;;;;;;;;;5063497;28;20045;-71
2022/01/08 00:54:05;;;;;;;17.80;9.10;;;;;;;;;;5064487;28;20040;-71
2022/01/08 00:56:31;;;;;;;16.90;9.50;;;;;;;;;;5064396;28;20036;-72
2022/01/08 00:58:57;;;;;;;15.63;9.20;;;;;;;;;;5064574;28;20037;-72
2022/01/08 01:01:23;;;;;;;18.05;10.38;;;;;;;;;;5060476;28;20040;-72
2022/01/08 01:03:49;;;;;;;17.85;9.48;;;;;;;;;;5065888;28;20375;-72
2022/01/08 01:06:15;;;;;;;18.13;9.07;;;;;;;;;;5065801;28;20035;-72
2022/01/08 01:08:41;;;;;;;19.15;9.20;;;;;;;;;;5061089;28;20486;-72
2022/01/08 01:11:07;;;;;;;18.83;9.70;;;;;;;;;;5062657;28;20103;-72
2022/01/08 01:13:33;;;;;;;19.92;10.13;;;;;;;;;;5063638;28;20036;-72
2022/01/08 01:16:01;;;;;;;20.33;9.93;;;;;;;;;;5060534;28;20059;-72
2022/01/08 01:18:27;;;;;;;22.27;9.68;;;;;;;;;;5063825;28;20132;-72
2022/01/08 01:20:53;;;;;;;17.80;9.98;;;;;;;;;;5067000;28;20124;-72
2022/01/08 01:23:26;;;;;;;23.23;10.60;;;;;;;;;;5066106;28;20041;-72
2022/01/08 01:25:57;;;;;;;18.00;10.38;;;;;;;;;;5061336;28;20512;-72
2022/01/08 01:28:42;;;;;;;19.73;10.70;;;;;;;;;;5061933;28;20307;-72
2022/01/08 01:47:12;;;;;;;19.95;11.00;;;;;;;;;;5064065;28;20037;-72
2022/01/08 01:49:42;;;;;;;19.75;10.75;;;;;;;;;;5063564;28;20490;-72
2022/01/08 01:52:09;;;;;;;19.30;10.57;;;;;;;;;;5064300;28;20047;-72
2022/01/08 01:54:36;;;;;;;20.67;11.68;;;;;;;;;;5062877;28;20044;-72
2022/01/08 01:57:03;;;;;;;23.23;11.25;;;;;;;;;;5062348;28;20040;-72
2022/01/08 01:59:30;;;;;;;18.98;12.02;;;;;;;;;;5060187;28;20478;-72
2022/01/08 02:01:57;;;;;;;18.88;11.43;;;;;;;;;;5067637;28;20041;-72
2022/01/08 02:04:23;;;;;;;21.52;11.73;;;;;;;;;;5069557;28;20052;-72
2022/01/08 02:06:49;;;;;;;19.42;11.77;;;;;;;;;;5069401;28;20036;-72
2022/01/08 02:09:15;;;;;;;18.02;11.65;;;;;;;;;;5066597;28;20144;-72
2022/01/08 02:12:00;;;;;;;19.75;11.98;;;;;;;;;;5072787;28;20040;-72
2022/01/08 02:14:27;;;;;;;20.15;11.85;;;;;;;;;;5072706;28;20040;-72
2022/01/08 02:16:54;;;;;;;22.58;12.00;;;;;;;;;;5067113;28;20107;-72
2022/01/08 02:19:20;;;;;;;22.20;11.63;;;;;;;;;;5071339;28;20041;-72
2022/01/08 02:21:47;;;;;;;18.98;11.00;;;;;;;;;;5072105;28;20048;-72
2022/01/08 02:24:13;;;;;;;18.05;10.73;;;;;;;;;;5072679;28;20043;-72
2022/01/08 02:26:39;;;;;;;21.45;10.75;;;;;;;;;;5069931;28;20029;-71
2022/01/08 02:29:05;;;;;;;16.63;10.68;;;;;;;;;;5061137;28;20126;-72
2022/01/08 02:31:31;;;;;;;17.52;10.68;;;;;;;;;;5060210;28;20156;-72
2022/01/08 02:33:57;;;;;;;20.35;10.70;;;;;;;;;;5058426;28;20040;-72
2022/01/08 02:36:23;;;;;;;17.95;9.70;;;;;;;;;;5058754;28;20037;-72
2022/01/08 02:38:50;;;;;;;21.95;11.02;;;;;;;;;;5052774;28;20044;-72
2022/01/08 02:41:16;;;;;;;20.35;10.43;;;;;;;;;;5061330;28;20505;-72
2022/01/08 02:43:45;;;;;;;16.90;9.98;;;;;;;;;;5072873;28;20064;-72
2022/01/08 02:46:12;;;;;;;20.85;9.80;;;;;;;;;;5071832;28;20133;-72
2022/01/08 02:48:39;;;;;;;16.80;10.82;;;;;;;;;;5057182;28;20123;-72
2022/01/08 02:51:05;;;;;;;19.67;9.88;;;;;;;;;;5061019;28;20041;-72
2022/01/08 02:53:31;;;;;;;19.55;9.73;;;;;;;;;;5071387;28;20036;-72
2022/01/08 02:55:57;;;;;;;19.88;10.00;;;;;;;;;;5066591;28;20096;-72
2022/01/08 02:58:26;;;;;;;19.73;9.40;;;;;;;;;;5063158;28;20095;-71
2022/01/08 03:00:52;;;;;;;20.52;9.32;;;;;;;;;;5065182;28;20509;-72
2022/01/08 03:03:17;;;;;;;13.10;8.23;;;;;;;;;;5068998;28;20037;-72
2022/01/08 03:05:43;;;;;;;13.35;8.40;;;;;;;;;;5067062;28;20033;-72
2022/01/08 03:08:10;;;;;;;17.02;8.35;;;;;;;;;;5070877;28;20071;-72
2022/01/08 03:10:36;;;;;;;15.93;7.95;;;;;;;;;;5069470;28;20056;-72
2022/01/08 03:13:02;;;;;;;14.02;7.35;;;;;;;;;;5056095;28;20090;-72
2022/01/08 03:15:33;;;;;;;15.50;7.72;;;;;;;;;;5069446;28;20087;-72
2022/01/08 03:17:58;;;;;;;14.70;7.70;;;;;;;;;;5068296;28;20037;-72
2022/01/08 03:20:24;;;;;;;12.20;6.65;;;;;;;;;;5064353;28;20336;-73
2022/01/08 03:22:51;;;;;;;14.45;7.50;;;;;;;;;;5071320;28;20038;-72
2022/01/08 03:25:18;;;;;;;14.10;7.35;;;;;;;;;;5071511;28;20040;-72
2022/01/08 03:27:44;;;;;;;12.98;7.78;;;;;;;;;;5066896;28;20081;-72
2022/01/08 03:30:12;;;;;;;12.20;6.75;;;;;;;;;;5063748;28;20040;-72
2022/01/08 03:32:38;;;;;;;15.98;7.18;;;;;;;;;;5059867;28;20036;-72
2022/01/08 03:35:05;;;;;;;12.18;7.07;;;;;;;;;;5058671;28;20060;-72
2022/01/08 03:37:31;;;;;;;13.38;6.82;;;;;;;;;;5057980;28;20025;-72
2022/01/08 03:39:57;;;;;;;16.48;7.32;;;;;;;;;;5069699;28;20032;-72
2022/01/08 03:42:22;;;;;;;16.33;7.57;;;;;;;;;;5063881;28;20036;-73
2022/01/08 03:44:48;;;;;;;16.02;7.40;;;;;;;;;;5052708;28;20033;-72
2022/01/08 03:47:30;;;;;;;12.30;6.82;;;;;;;;;;5054653;28;20564;-72
2022/01/08 03:49:56;;;;;;;;;;;;;;;;;;5071543;28;20052;-72
2022/01/08 03:52:22;;;;;;;15.50;6.97;;;;;;;;;;5066583;28;19920;-72
2022/01/08 03:54:48;;;;;;;12.05;6.97;;;;;;;;;;5056370;28;20090;-72
2022/01/08 03:57:14;;;;;;;12.88;7.70;;;;;;;;;;5069460;28;20036;-72
2022/01/08 03:59:40;;;;;;;14.38;8.43;;;;;;;;;;5071144;28;20041;-72
2022/01/08 04:02:06;;;;;;;16.17;7.78;;;;;;;;;;5052810;28;20382;-72
2022/01/08 04:04:32;;;;;;;16.30;8.20;;;;;;;;;;5070919;28;20120;-72
2022/01/08 04:06:58;;;;;;;15.65;8.07;;;;;;;;;;5072624;28;20223;-72
2022/01/08 04:09:24;;;;;;;17.88;8.05;;;;;;;;;;5074205;28;20098;-72
2022/01/08 04:11:51;;;;;;;17.92;9.02;;;;;;;;;;5075297;28;20082;-72
2022/01/08 04:14:18;;;;;;;16.42;8.23;;;;;;;;;;5075436;28;20098;-72
2022/01/08 04:16:48;;;;;;;16.08;8.65;;;;;;;;;;5071820;28;20047;-72
2022/01/08 04:19:14;;;;;;;18.58;8.52;;;;;;;;;;5067412;28;20386;-72
2022/01/08 04:21:59;;;;;;;18.55;9.30;;;;;;;;;;5065478;28;20106;-72
2022/01/08 04:24:25;;;;;;;15.90;8.02;;;;;;;;;;5068724;28;20520;-72
2022/01/08 04:26:51;;;;;;;18.85;8.95;;;;;;;;;;5061224;28;20490;-72
2022/01/08 04:29:17;;;;;;;21.00;8.93;;;;;;;;;;5059664;28;20033;-72
2022/01/08 04:31:43;;;;;;;16.95;8.93;;;;;;;;;;5072165;28;20040;-72
2022/01/08 04:34:09;;;;;;;18.83;8.70;;;;;;;;;;5064024;28;20045;-72
2022/01/08 04:36:35;;;;;;;14.68;8.23;;;;;;;;;;5068615;28;20119;-72
2022/01/08 04:39:01;;;;;;;15.77;8.63;;;;;;;;;;5061772;28;20036;-72
2022/01/08 04:41:27;;;;;;;19.17;9.23;;;;;;;;;;5062816;28;20255;-73
2022/01/08 04:43:53;;;;;;;17.63;9.05;;;;;;;;;;5053542;28;20041;-72
2022/01/08 04:46:19;;;;;;;19.58;8.63;;;;;;;;;;5065390;28;20039;-72
2022/01/08 04:48:45;;;;;;;14.50;8.52;;;;;;;;;;5067147;28;20037;-72
2022/01/08 04:51:11;;;;;;;18.55;8.85;;;;;;;;;;5062140;28;20037;-72
2022/01/08 04:53:37;;;;;;;20.33;9.05;;;;;;;;;;5064414;28;20120;-73
2022/01/08 04:56:03;;;;;;;18.23;8.90;;;;;;;;;;5070124;28;20032;-72
2022/01/08 04:58:29;;;;;;;16.88;8.82;;;;;;;;;;5061808;28;20037;-72
2022/01/08 05:00:55;;;;;;;20.10;9.27;;;;;;;;;;5077539;22;20029;-67
2022/01/08 05:03:21;;;;;;;17.10;9.07;;;;;;;;;;4980808;28;20049;-66
2022/01/08 05:05:47;;;;;;;19.20;9.10;;;;;;;;;;4983022;28;20049;-67
2022/01/08 05:08:13;;;;;;;15.20;8.65;;;;;;;;;;4982191;28;20080;-66
2022/01/08 05:10:39;;;;;;;19.42;9.40;;;;;;;;;;4983654;28;20131;-66
2022/01/08 05:13:06;;;;;;;17.70;8.27;;;;;;;;;;5001500;28;20137;-67
2022/01/08 05:15:33;;;;;;;16.27;8.98;;;;;;;;;;5007319;28;20457;-67
2022/01/08 05:17:58;;;;;;;16.65;8.52;;;;;;;;;;5002138;28;20539;-66
2022/01/08 05:20:30;;;;;;;13.70;8.07;;;;;;;;;;5005902;28;20030;-67
2022/01/08 05:23:00;;;;;;;17.25;8.75;;;;;;;;;;5007967;28;20062;-66
2022/01/08 05:25:27;;;;;;;14.57;8.70;;;;;;;;;;5002162;28;20052;-66
2022/01/08 05:27:53;;;;;;;15.98;8.30;;;;;;;;;;5004216;28;20041;-66
2022/01/08 05:30:20;;;;;;;16.35;8.32;;;;;;;;;;5001768;28;20083;-66
2022/01/08 05:32:46;;;;;;;15.65;8.55;;;;;;;;;;5000701;28;20087;-66
2022/01/08 05:35:12;;;;;;;15.20;8.43;;;;;;;;;;5004386;28;20125;-66
2022/01/08 05:37:38;;;;;;;18.45;7.85;;;;;;;;;;5002322;28;20045;-66
2022/01/08 05:40:05;;;;;;;17.98;8.02;;;;;;;;;;5002622;28;20048;-66
2022/01/08 05:42:31;;;;;;;12.60;7.80;;;;;;;;;;4996715;28;20103;-66
2022/01/08 05:44:57;;;;;;;15.50;8.48;;;;;;;;;;4999382;28;20034;-67
2022/01/08 05:47:23;;;;;;;16.27;7.57;;;;;;;;;;5000446;28;20033;-66
2022/01/08 05:49:49;;;;;;;15.60;8.30;;;;;;;;;;4999569;28;20049;-67
2022/01/08 05:52:15;;;;;;;14.75;8.07;;;;;;;;;;5004865;28;20431;-66
2022/01/08 05:54:42;;;;;;;12.82;7.45;;;;;;;;;;4997666;28;20064;-66
2022/01/08 05:57:08;;;;;;;18.42;7.95;;;;;;;;;;4999541;28;20169;-67
2022/01/08 05:59:34;;;;;;;18.27;7.97;;;;;;;;;;5002273;28;20041;-66
2022/01/08 06:02:00;;;;;;;15.48;7.78;;;;;;;;;;4996319;28;20060;-66
2022/01/08 06:04:26;;;;;;;16.98;8.25;;;;;;;;;;4999178;28;20076;-66
2022/01/08 06:06:52;;;;;;;17.15;8.20;;;;;;;;;;5005856;28;20037;-66
2022/01/08 06:09:18;;;;;;;16.88;8.43;;;;;;;;;;4999063;28;20421;-66
2022/01/08 06:11:44;;;;;;;18.85;8.23;;;;;;;;;;5000190;28;20183;-67
2022/01/08 06:14:10;;;;;;;18.48;8.55;;;;;;;;;;5008473;28;20082;-66
2022/01/08 06:16:38;;;;;;;17.35;8.35;;;;;;;;;;4999781;28;20134;-66
2022/01/08 06:19:05;;;;;;;19.42;8.85;;;;;;;;;;5005179;28;20048;-66
2022/01/08 06:21:31;;;;;;;15.48;8.40;;;;;;;;;;4999495;28;20081;-66
2022/01/08 06:23:57;;;;;;;15.68;8.40;;;;;;;;;;5000033;28;20066;-66
2022/01/08 06:26:23;;;;;;;19.48;9.00;;;;;;;;;;5004490;28;20111;-66
2022/01/08 06:28:51;;;;;;;14.85;8.27;;;;;;;;;;4999998;28;20042;-66
2022/01/08 06:31:18;;;;;;;17.00;8.07;;;;;;;;;;5004332;28;20046;-66
2022/01/08 06:33:43;;;;;;;16.27;7.97;;;;;;;;;;4997818;28;20064;-66
2022/01/08 06:36:09;;;;;;;15.43;8.60;;;;;;;;;;5005620;28;20034;-66
2022/01/08 06:38:35;;;;;;;13.88;7.53;;;;;;;;;;5000023;28;20053;-66
2022/01/08 06:41:01;;;;;;;16.67;8.75;;;;;;;;;;4996280;28;20061;-66
2022/01/08 06:43:27;;;;;;;15.52;8.60;;;;;;;;;;5000915;28;20050;-66
2022/01/08 06:45:53;;;;;;;15.70;8.05;;;;;;;;;;4998461;28;20045;-66
2022/01/08 06:48:19;;;;;;;16.95;8.77;;;;;;;;;;4998985;28;20043;-65
2022/01/08 06:50:45;;;;;;;15.68;8.55;;;;;;;;;;5005070;28;20388;-66
2022/01/08 06:53:11;;;;;;;16.00;7.82;;;;;;;;;;5002616;28;20038;-66
2022/01/08 06:55:37;;;;;;;17.05;8.68;;;;;;;;;;5001189;28;20495;-66
2022/01/08 06:58:03;;;;;;;17.77;7.85;;;;;;;;;;5004036;28;20452;-66
2022/01/08 07:00:29;;;;;;;14.82;8.02;;;;;;;;;;5003325;28;20172;-66
2022/01/08 07:02:55;;;;;;;16.63;7.47;;;;;;;;;;5004869;28;20114;-66
2022/01/08 07:05:21;;;;;;;13.23;7.38;;;;;;;;;;5001509;28;20034;-66
2022/01/08 07:07:47;;;;;;;11.15;7.47;;;;;;;;;;5002089;28;20053;-66
2022/01/08 07:10:13;;;;;;;18.60;7.93;;;;;;;;;;5000119;28;20046;-66
2022/01/08 07:12:39;;;;;;;12.57;7.47;;;;;;;;;;5001031;28;20410;-66
2022/01/08 07:15:06;;;;;;;16.77;7.93;;;;;;;;;;4998279;28;20039;-66
2022/01/08 07:17:32;;;;;;;15.30;7.60;;;;;;;;;;4997544;28;20046;-66
2022/01/08 07:19:58;;;;;;;17.83;7.88;;;;;;;;;;5003188;28;20045;-66
2022/01/08 07:22:24;;;;;;;18.38;7.88;;;;;;;;;;5005050;28;20394;-65
2022/01/08 07:24:50;;;;;;;14.25;7.72;;;;;;;;;;4998251;28;20082;-66
2022/01/08 07:27:16;;;;;;;17.25;7.70;;;;;;;;;;5000538;28;20042;-65
2022/01/08 07:29:42;;;;;;;15.25;6.78;;;;;;;;;;4999767;28;20048;-65
2022/01/08 07:32:08;;;;;;;14.95;7.47;;;;;;;;;;4998554;28;20041;-66
2022/01/08 07:34:33;;;;;;;18.80;8.15;;;;;;;;;;5001034;28;20128;-65
2022/01/08 07:36:59;;;;;;;19.83;7.95;;;;;;;;;;5001896;28;20120;-67
2022/01/08 07:39:25;;;;;;;18.80;7.63;;;;;;;;;;5003303;28;20046;-67
2022/01/08 07:41:51;;;;;;;16.48;8.13;;;;;;;;;;5002472;28;20033;-67
2022/01/08 07:44:17;;;;;;;20.33;8.20;;;;;;;;;;5002203;28;20037;-67
2022/01/08 07:46:43;;;;;;;16.77;7.47;;;;;;;;;;4994969;28;20744;-67
2022/01/08 07:49:09;;;;;;;16.33;7.22;;;;;;;;;;5000312;28;20565;-67
2022/01/08 07:51:35;;;;;;;17.45;7.72;;;;;;;;;;5002858;28;20496;-67
2022/01/08 07:54:01;;;;;;;17.50;7.90;;;;;;;;;;5006491;28;20090;-67
2022/01/08 07:56:27;;;;;;;13.52;7.20;;;;;;;;;;5006548;28;20038;-67
2022/01/08 07:58:53;;;;;;;16.05;8.00;;;;;;;;;;5005807;28;20042;-67
2022/01/08 08:01:21;;;;;;;16.52;7.43;;;;;;;;;;4993027;28;20045;-66
2022/01/08 08:03:47;;;;;;;13.00;6.95;;;;;;;;;;4993684;28;20050;-67
2022/01/08 08:06:13;;;;;;;22.48;8.05;;;;;;;;;;5006955;28;20042;-67
2022/01/08 08:08:39;;;;;;;17.45;7.43;;;;;;;;;;5007645;28;20182;-68
2022/01/08 08:11:05;;;;;;;17.98;8.18;;;;;;;;;;5007671;28;20053;-66
2022/01/08 08:13:31;;;;;;;16.77;9.38;;;;;;;;;;5007885;28;20471;-66
2022/01/08 08:15:57;;;;;;;16.30;8.18;;;;;;;;;;5007514;28;20076;-67
2022/01/08 08:18:23;;;;;;;12.82;8.07;;;;;;;;;;5006601;28;20053;-65
2022/01/08 08:20:49;;;;;;;23.20;9.35;;;;;;;;;;5007906;28;20503;-65
2022/01/08 08:23:15;;;;;;;18.25;9.07;;;;;;;;;;5008388;28;20065;-65
2022/01/08 08:25:41;;;;;;;16.38;9.23;;;;;;;;;;5006534;28;20056;-65
2022/01/08 08:28:08;;;;;;;15.88;8.10;;;;;;;;;;5008064;28;20046;-64
2022/01/08 08:30:34;;;;;;;16.50;7.95;;;;;;;;;;5005666;28;20046;-64
2022/01/08 08:33:00;;;;;;;16.38;8.13;;;;;;;;;;4997851;28;20038;-64
2022/01/08 08:35:26;;;;;;;17.92;8.82;;;;;;;;;;4999694;28;20034;-65
2022/01/08 08:37:52;;;;;;;16.40;8.00;;;;;;;;;;5004732;28;20038;-65
2022/01/08 08:40:18;;;;;;;18.83;8.40;;;;;;;;;;5001626;28;20043;-64
2022/01/08 08:42:44;;;;;;;17.13;8.35;;;;;;;;;;4992547;28;20033;-65
2022/01/08 08:45:11;;;;;;;17.95;8.07;;;;;;;;;;5000743;28;20491;-65
2022/01/08 08:47:39;;;;;;;20.02;8.15;;;;;;;;;;4998894;28;20037;-65
2022/01/08 08:50:06;;;;;;;14.50;7.97;;;;;;;;;;5007035;28;20054;-65
2022/01/08 08:52:32;;;;;;;19.83;9.23;;;;;;;;;;4995800;28;20428;-65
2022/01/08 08:54:58;;;;;;;19.27;9.10;;;;;;;;;;4992088;28;20038;-65
2022/01/08 08:57:24;;;;;;;16.35;8.23;;;;;;;;;;5006155;28;20042;-65
2022/01/08 08:59:50;;;;;;;17.55;9.15;;;;;;;;;;5010252;28;20454;-64
2022/01/08 09:02:16;;;;;;;20.65;9.63;;;;;;;;;;5004293;28;20030;-65
2022/01/08 09:04:42;;;;;;;16.60;9.75;;;;;;;;;;5005802;28;20045;-65
2022/01/08 09:07:08;;;;;;;19.98;10.23;;;;;;;;;;5005870;28;20038;-64
2022/01/08 09:09:34;;;;;;;20.30;10.55;;;;;;;;;;5008685;28;20073;-65
2022/01/08 09:12:00;;;;;;;21.08;10.88;;;;;;;;;;5003664;28;20038;-65
2022/01/08 09:14:26;;;;;;;22.48;10.95;;;;;;;;;;4994837;28;20558;-66
2022/01/08 09:16:57;;;;;;;26.00;11.07;;;;;;;;;;4993790;28;20104;-66
2022/01/08 09:19:25;;;;;;;19.50;10.50;;;;;;;;;;4993008;28;20051;-66
2022/01/08 09:21:51;;;;;;;22.70;10.93;;;;;;;;;;5000436;28;20398;-66
2022/01/08 09:24:21;;;;;;;23.45;10.82;;;;;;;;;;5010992;28;20060;-66
2022/01/08 09:26:48;;;;;;;20.70;10.57;;;;;;;;;;5010917;28;20042;-66
2022/01/08 09:29:14;;;;;;;21.83;11.48;;;;;;;;;;5005487;28;20073;-66
2022/01/08 09:31:40;;;;;;;26.70;11.13;;;;;;;;;;4990248;28;20459;-66
2022/01/08 09:34:06;;;;;;;23.92;11.35;;;;;;;;;;4992820;28;20068;-66
2022/01/08 09:36:33;;;;;;;22.02;11.32;;;;;;;;;;5002130;28;20076;-66
2022/01/08 09:38:59;;;;;;;22.48;10.75;;;;;;;;;;5010667;28;20053;-66
2022/01/08 09:41:25;;;;;;;20.35;11.77;;;;;;;;;;5010986;28;20041;-66
2022/01/08 09:43:51;;;;;;;21.67;11.25;;;;;;;;;;5006646;28;20151;-66
2022/01/08 09:46:21;;;;;;;21.88;10.35;;;;;;;;;;5010375;28;20045;-66
2022/01/08 09:48:47;;;;;;;21.65;11.07;;;;;;;;;;5011150;28;20053;-66
2022/01/08 09:51:13;;;;;;;23.40;11.80;;;;;;;;;;5007142;28;20038;-66
2022/01/08 09:53:39;;;;;;;22.48;11.20;;;;;;;;;;4999749;28;20523;-66
2022/01/08 09:56:05;;;;;;;19.90;11.52;;;;;;;;;;4991265;28;20050;-66
2022/01/08 09:58:31;;;;;;;20.90;11.00;;;;;;;;;;4991141;28;20046;-66
2022/01/08 10:00:57;;;;;;;19.30;11.80;;;;;;;;;;5001066;28;20046;-66
2022/01/08 10:03:24;;;;;;;22.25;11.30;;;;;;;;;;5010740;28;20125;-67
2022/01/08 10:05:54;;;;;;;18.65;10.55;;;;;;;;;;5001954;28;20035;-67
2022/01/08 10:08:27;;;;;;;18.25;11.50;;;;;;;;;;5005853;28;20046;-66
2022/01/08 10:10:55;;;;;;;17.50;10.85;;;;;;;;;;5010235;28;20784;-67
2022/01/08 10:13:22;;;;;;;19.90;10.52;;;;;;;;;;5009783;28;20077;-67
2022/01/08 10:18:35;;;;;;;18.17;11.82;;;;;;;;;;5009518;28;20084;-67
2022/01/08 10:21:14;;;;;;;21.23;11.07;;;;;;;;;;5000840;28;20038;-67
2022/01/08 10:23:42;;;;;;;21.17;11.32;;;;;;;;;;5010412;28;20044;-67
2022/01/08 10:26:09;;;;;;;20.83;11.02;;;;;;;;;;5009632;28;20057;-67
2022/01/08 10:28:43;;;;;;;19.35;11.40;;;;;;;;;;5004624;28;20052;-67
2022/01/08 10:31:16;;;;;;;23.02;10.90;;;;;;;;;;5010228;28;20045;-68
2022/01/08 10:33:44;;;;;;;25.48;12.32;;;;;;;;;;5010402;28;20100;-68
2022/01/08 10:36:11;;;;;;;20.17;11.60;;;;;;;;;;5004888;28;20046;-67
2022/01/08 10:38:37;;;;;;;21.13;11.70;;;;;;;;;;4999129;28;20046;-67
2022/01/08 10:41:04;;;;;;;20.52;11.65;;;;;;;;;;5000647;28;20030;-67
2022/01/08 10:43:31;;;;;;;19.50;11.48;;;;;;;;;;5010310;28;20034;-67
2022/01/08 10:46:08;;;;;;;19.98;11.93;;;;;;;;;;5008106;28;20037;-68
2022/01/08 10:48:35;;;;;;;20.38;11.57;;;;;;;;;;5009123;28;20129;-68
2022/01/08 10:51:18;;;;;;;19.90;10.80;;;;;;;;;;5007256;28;20049;-67
2022/01/08 10:53:53;;;;;;;22.00;11.23;;;;;;;;;;5009837;28;20042;-68
2022/01/08 10:56:25;;;;;;;19.83;10.95;;;;;;;;;;4996703;28;20050;-68
2022/01/08 10:58:55;;;;;;;17.73;11.57;;;;;;;;;;4997010;28;20049;-67
2022/01/08 11:01:41;;;;;;;24.67;12.18;;;;;;;;;;5002644;22;20034;-71
2022/01/08 11:04:09;;;;;;;20.73;11.95;;;;;;;;;;4970684;28;20055;-71
2022/01/08 11:06:50;;;;;;;20.77;11.68;;;;;;;;;;4970283;28;20077;-71
2022/01/08 11:09:16;;;;;;;21.23;11.02;;;;;;;;;;4969953;28;20117;-71
2022/01/08 11:11:43;;;;;;;20.75;11.20;;;;;;;;;;4969980;28;20041;-71
2022/01/08 11:14:21;;;;;;;21.05;11.55;;;;;;;;;;4970445;28;20054;-71
2022/01/08 11:16:50;;;;;;;21.73;11.32;;;;;;;;;;4970790;28;20047;-71
2022/01/08 11:19:17;;;;;;;16.52;10.25;;;;;;;;;;4963952;28;20527;-72
2022/01/08 11:21:43;;;;;;;20.50;10.80;;;;;;;;;;4966847;28;20035;-72
2022/01/08 11:24:09;;;;;;;20.88;11.63;;;;;;;;;;4958477;28;20035;-72
2022/01/08 11:26:36;;;;;;;22.10;11.27;;;;;;;;;;4970917;28;20042;-72
2022/01/08 11:29:03;;;;;;;20.77;12.20;;;;;;;;;;4968193;28;20117;-72
2022/01/08 11:31:30;;;;;;;20.30;12.88;;;;;;;;;;4969565;28;20038;-71
2022/01/08 11:34:02;;;;;;;23.70;12.20;;;;;;;;;;4966245;28;20035;-71
2022/01/08 11:36:28;;;;;;;;;;;;;;;;;;4969577;28;20117;-71
2022/01/08 11:38:56;;;;;;;26.92;13.38;;;;;;;;;;4972399;28;20009;-71
2022/01/08 11:41:22;;;;;;;21.27;12.02;;;;;;;;;;4968705;28;20161;-70
2022/01/08 11:43:50;;;;;;;23.60;13.18;;;;;;;;;;4968540;28;20043;-70
2022/01/08 11:46:16;;;;;;;22.25;14.02;;;;;;;;;;4968788;28;20393;-71
2022/01/08 11:48:46;;;;;;;27.30;15.00;;;;;;;;;;4966927;28;20034;-72
2022/01/08 11:51:16;;;;;;;28.05;14.45;;;;;;;;;;4966873;28;20454;-71
2022/01/08 11:53:46;;;;;;;29.80;14.85;;;;;;;;;;4967343;28;20545;-71
2022/01/08 11:56:21;;;;;;;26.33;16.38;;;;;;;;;;4961122;28;20042;-71
2022/01/08 11:59:01;;;;;;;27.90;14.32;;;;;;;;;;4965566;28;20099;-71
2022/01/08 12:01:27;;;;;;;23.70;13.00;;;;;;;;;;4965024;28;20492;-71
2022/01/08 12:03:55;;;;;;;25.73;16.42;;;;;;;;;;4968019;28;20039;-75
2022/01/08 12:06:26;;;;;;;26.33;15.85;;;;;;;;;;4967579;28;20042;-71
2022/01/08 12:09:15;;;;;;;20.58;13.93;;;;;;;;;;4966364;28;20047;-72
2022/01/08 12:11:47;;;;;;;26.10;17.58;;;;;;;;;;4968285;28;20416;-71
2022/01/08 12:14:14;;;;;;;27.83;16.40;;;;;;;;;;4969201;28;20096;-71
2022/01/08 12:16:41;;;;;;;28.98;16.80;;;;;;;;;;4955117;28;20044;-71
2022/01/08 12:19:08;;;;;;;24.50;17.30;;;;;;;;;;4960510;28;20073;-71
2022/01/08 12:21:36;;;;;;;25.20;15.65;;;;;;;;;;4964053;28;20064;-71
2022/01/08 12:24:21;;;;;;;26.50;16.45;;;;;;;;;;4969576;28;20067;-71
2022/01/08 12:26:47;;;;;;;28.70;16.77;;;;;;;;;;4959218;28;20039;-71
2022/01/08 12:29:33;;;;;;;24.17;15.45;;;;;;;;;;4966495;28;20499;-71
2022/01/08 12:32:20;;;;;;;30.30;16.67;;;;;;;;;;4968620;28;20176;-71
2022/01/08 12:34:50;;;;;;;26.77;16.15;;;;;;;;;;4963612;28;20157;-72
2022/01/08 12:37:17;;;;;;;33.38;18.10;;;;;;;;;;4972453;28;20073;-71
2022/01/08 12:39:47;;;;;;;32.63;19.17;;;;;;;;;;4972176;28;20091;-71
2022/01/08 12:42:26;;;;;;;36.95;18.95;;;;;;;;;;4971137;28;20046;-71
2022/01/08 12:45:02;;;;;;;34.30;18.67;;;;;;;;;;4969344;28;20043;-71
2022/01/08 12:47:37;;;;;;;35.58;20.15;;;;;;;;;;4969922;28;20404;-71
2022/01/08 12:50:22;;;;;;;40.65;21.00;;;;;;;;;;4963423;28;20062;-71
2022/01/08 12:53:14;;;;;;;37.45;20.92;;;;;;;;;;4972399;28;20058;-71
2022/01/08 12:55:55;;;;;;;41.13;20.17;;;;;;;;;;4958136;28;20047;-71
2022/01/08 12:58:23;;;;;;;39.45;21.75;;;;;;;;;;4972899;28;20046;-76
2022/01/08 13:00:53;;;;;;;36.60;20.08;;;;;;;;;;4972492;28;20429;-73
2022/01/08 13:03:23;;;;;;;38.38;20.92;;;;;;;;;;4973085;28;20050;-74
2022/01/08 13:05:49;;;;;;;41.28;22.20;;;;;;;;;;4969736;28;20085;-73
2022/01/08 13:08:21;;;;;;;42.70;20.23;;;;;;;;;;4972371;28;20035;-74
2022/01/08 13:10:48;;;;;;;38.33;20.13;;;;;;;;;;4963971;28;20046;-73
2022/01/08 13:13:14;;;;;;;37.95;19.15;;;;;;;;;;4971386;28;20035;-73
2022/01/08 13:15:40;;;;;;;38.30;20.00;;;;;;;;;;4970964;28;20045;-73
2022/01/08 13:18:17;;;;;;;36.00;17.77;;;;;;;;;;4966822;28;20032;-73
2022/01/08 13:20:43;;;;;;;39.38;19.13;;;;;;;;;;4983004;28;20054;-71
2022/01/08 13:23:13;;;;;;;33.33;18.38;;;;;;;;;;4972161;28;20035;-70
2022/01/08 13:25:39;;;;;;;37.47;17.63;;;;;;;;;;4970511;28;20068;-71
2022/01/08 13:28:05;;;;;;;37.97;18.65;;;;;;;;;;4971958;28;20043;-71
2022/01/08 13:30:33;;;;;;;36.45;17.73;;;;;;;;;;4971370;28;20043;-71
2022/01/08 13:33:02;;;;;;;34.60;17.33;;;;;;;;;;4970938;28;20058;-71
2022/01/08 13:35:28;;;;;;;34.15;16.02;;;;;;;;;;4962123;28;20039;-71
2022/01/08 13:37:54;;;;;;;28.88;16.70;;;;;;;;;;4968774;28;20054;-70
2022/01/08 13:40:25;;;;;;;32.92;17.98;;;;;;;;;;4971461;28;20042;-70
2022/01/08 13:42:51;;;;;;;34.20;17.33;;;;;;;;;;4969604;28;20049;-70
2022/01/08 13:45:22;;;;;;;36.50;17.50;;;;;;;;;;4973174;28;20039;-71
2022/01/08 13:47:49;;;;;;;33.83;17.55;;;;;;;;;;4971691;28;20038;-70
2022/01/08 13:50:20;;;;;;;31.67;17.10;;;;;;;;;;4965928;28;20070;-71
2022/01/08 13:52:50;;;;;;;32.78;16.77;;;;;;;;;;4971616;28;20118;-71
2022/01/08 13:55:18;;;;;;;34.30;16.38;;;;;;;;;;4972009;28;20051;-70
2022/01/08 13:57:53;;;;;;;34.55;16.60;;;;;;;;;;4970810;28;20035;-71
2022/01/08 14:00:21;;;;;;;34.55;15.60;;;;;;;;;;4969081;28;20054;-71
2022/01/08 14:02:48;;;;;;;36.15;15.20;;;;;;;;;;4968591;28;20059;-71
2022/01/08 14:05:14;;;;;;;33.75;15.82;;;;;;;;;;4968780;28;20409;-70
2022/01/08 14:07:41;;;;;;;29.63;16.00;;;;;;;;;;4970168;28;20042;-71
2022/01/08 14:10:08;;;;;;;32.83;17.00;;;;;;;;;;4969518;28;20046;-71
2022/01/08 14:12:34;;;;;;;28.70;15.70;;;;;;;;;;4976804;28;20049;-71
2022/01/08 14:15:04;;;;;;;34.90;16.52;;;;;;;;;;4970809;28;20043;-71
2022/01/08 14:17:30;;;;;;;30.95;15.25;;;;;;;;;;4971198;28;20038;-71
2022/01/08 14:20:00;;;;;;;36.72;16.02;;;;;;;;;;4971680;28;20136;-72
2022/01/08 14:22:29;;;;;;;30.48;14.75;;;;;;;;;;4959862;28;20035;-71
2022/01/08 14:24:56;;;;;;;27.83;14.13;;;;;;;;;;4958611;28;20038;-71
2022/01/08 14:27:24;;;;;;;26.35;13.00;;;;;;;;;;4961687;28;20674;-71
2022/01/08 14:30:02;;;;;;;27.85;12.93;;;;;;;;;;4963210;28;20591;-71
2022/01/08 14:32:29;;;;;;;30.77;14.23;;;;;;;;;;4973338;28;20047;-71
2022/01/08 14:35:01;;;;;;;30.65;13.55;;;;;;;;;;4964484;28;20138;-72
2022/01/08 14:37:47;;;;;;;29.80;12.85;;;;;;;;;;4983144;28;20059;-72
2022/01/08 14:40:17;;;;;;;28.00;13.05;;;;;;;;;;4966703;28;20082;-71
2022/01/08 14:42:43;;;;;;;26.17;13.30;;;;;;;;;;4960443;28;20572;-71
2022/01/08 14:45:09;;;;;;;26.05;12.60;;;;;;;;;;4963145;28;20123;-72